sensor_id;sensor_type;location;lat;lon;timestamp;temperature;humidity
45066;DHT22;30830;53.704;10.004;2022-09-20T00:01:53;7.80;99.90
45066;DHT22;30830;53.704;10.004;2022-09-20T00:04:19;7.80;99.90
45066;DHT22;30830;53.704;10.004;2022-09-20T00:06:44;7.80;99.90
45066;DHT22;30830;53.704;10.004;2022-09-20T00:09:10;7.80;99.90
45066;DHT22;30830;53.704;10.004;2022-09-20T00:11:36;7.80;99.90
45066;DHT22;30830;53.704;10.004;2022-09-20T00:14:04;7.70;99.90
45066;DHT22;30830;53.704;10.004;2022-09-20T00:16:33;7.70;99.90
45066;DHT22;30830;53.704;10.004;2022-09-20T00:19:00;7.70;99.90
45066;DHT22;30830;53.704;10.004;2022-09-20T00:21:29;7.70;99.90
45066;DHT22;30830;53.704;10.004;2022-09-20T00:23:56;7.70;99.90
45066;DHT22;30830;53.704;10.004;2022-09-20T00:26:21;7.70;99.90
45066;DHT22;30830;53.704;10.004;2022-09-20T00:28:47;7.70;99.90
45066;DHT22;30830;53.704;10.004;2022-09-20T00:31:14;7.70;99.90
45066;DHT22;30830;53.704;10.004;2022-09-20T00:33:39;7.70;99.90
45066;DHT22;30830;53.704;10.004;2022-09-20T00:36:24;7.70;99.90
45066;DHT22;30830;53.704;10.004;2022-09-20T00:38:59;7.70;99.90
45066;DHT22;30830;53.704;10.004;2022-09-20T00:41:26;7.60;99.90
45066;DHT22;30830;53.704;10.004;2022-09-20T00:43:53;7.60;99.90
45066;DHT22;30830;53.704;10.004;2022-09-20T00:46:25;7.60;99.90
45066;DHT22;30830;53.704;10.004;2022-09-20T00:48:55;7.60;99.90
45066;DHT22;30830;53.704;10.004;2022-09-20T00:51:27;7.60;99.90
45066;DHT22;30830;53.704;10.004;2022-09-20T00:53:56;7.60;99.90
45066;DHT22;30830;53.704;10.004;2022-09-20T00:56:30;7.60;99.90
45066;DHT22;30830;53.704;10.004;2022-09-20T00:59:24;7.60;99.90
45066;DHT22;30830;53.704;10.004;2022-09-20T01:01:55;7.50;99.90
45066;DHT22;30830;53.704;10.004;2022-09-20T01:04:24;7.50;99.90
45066;DHT22;30830;53.704;10.004;2022-09-20T01:06:52;7.50;99.90
45066;DHT22;30830;53.704;10.004;2022-09-20T01:09:18;7.50;99.90
45066;DHT22;30830;53.704;10.004;2022-09-20T01:11:45;7.50;99.90
45066;DHT22;30830;53.704;10.004;2022-09-20T01:14:12;7.50;99.90
45066;DHT22;30830;53.704;10.004;2022-09-20T01:16:39;7.50;99.90
45066;DHT22;30830;53.704;10.004;2022-09-20T01:19:16;7.50;99.90
45066;DHT22;30830;53.704;10.004;2022-09-20T01:21:43;7.50;99.90
45066;DHT22;30830;53.704;10.004;2022-09-20T01:24:28;7.50;99.90
45066;DHT22;30830;53.704;10.004;2022-09-20T01:27:15;7.40;99.90
45066;DHT22;30830;53.704;10.004;2022-09-20T01:30:04;7.40;99.90
45066;DHT22;30830;53.704;10.004;2022-09-20T01:32:40;7.40;99.90
45066;DHT22;30830;53.704;10.004;2022-09-20T01:35:08;7.40;99.90
45066;DHT22;30830;53.704;10.004;2022-09-20T01:37:58;7.30;99.90
45066;DHT22;30830;53.704;10.004;2022-09-20T01:40:38;7.30;99.90
45066;DHT22;30830;53.704;10.004;2022-09-20T01:43:20;7.30;99.90
45066;DHT22;30830;53.704;10.004;2022-09-20T01:45:49;7.30;99.90
45066;DHT22;30830;53.704;10.004;2022-09-20T01:51:05;7.30;99.90
45066;DHT22;30830;53.704;10.004;2022-09-20T02:07:36;7.30;99.90
45066;DHT22;30830;53.704;10.004;2022-09-20T02:10:18;7.30;99.90
45066;DHT22;30830;53.704;10.004;2022-09-20T02:12:57;7.30;99.90
45066;DHT22;30830;53.704;10.004;2022-09-20T02:15:45;7.30;99.90
45066;DHT22;30830;53.704;10.004;2022-09-20T02:21:29;7.30;99.90
45066;DHT22;30830;53.704;10.004;2022-09-20T02:24:15;7.30;99.90
45066;DHT22;30830;53.704;10.004;2022-09-20T02:33:09;7.20;99.90
45066;DHT22;30830;53.704;10.004;2022-09-20T02:35:45;7.20;99.90
45066;DHT22;30830;53.704;10.004;2022-09-20T02:38:28;7.20;99.90
45066;DHT22;30830;53.704;10.004;2022-09-20T02:44:35;7.10;99.90
45066;DHT22;30830;53.704;10.004;2022-09-20T02:47:38;7.10;99.90
45066;DHT22;30830;53.704;10.004;2022-09-20T02:53:02;7.10;99.90
45066;DHT22;30830;53.704;10.004;2022-09-20T02:55:53;7.10;99.90
45066;DHT22;30830;53.704;10.004;2022-09-20T03:06:32;7.10;99.90
45066;DHT22;30830;53.704;10.004;2022-09-20T03:09:10;7.10;99.90
45066;DHT22;30830;53.704;10.004;2022-09-20T03:12:09;7.00;99.90
45066;DHT22;30830;53.704;10.004;2022-09-20T03:26:31;6.90;99.90
45066;DHT22;30830;53.704;10.004;2022-09-20T03:29:03;6.90;99.90
45066;DHT22;30830;53.704;10.004;2022-09-20T03:34:08;6.90;99.90
45066;DHT22;30830;53.704;10.004;2022-09-20T03:37:08;6.80;99.90
45066;DHT22;30830;53.704;10.004;2022-09-20T03:39:58;6.80;99.90
45066;DHT22;30830;53.704;10.004;2022-09-20T03:42:28;6.80;99.90
45066;DHT22;30830;53.704;10.004;2022-09-20T03:50:50;6.70;99.90
45066;DHT22;30830;53.704;10.004;2022-09-20T03:53:40;6.70;99.90
45066;DHT22;30830;53.704;10.004;2022-09-20T04:04:48;6.50;99.90
45066;DHT22;30830;53.704;10.004;2022-09-20T04:15:40;6.50;99.90
45066;DHT22;30830;53.704;10.004;2022-09-20T04:26:27;6.40;99.90
45066;DHT22;30830;53.704;10.004;2022-09-20T04:29:01;6.40;99.90
45066;DHT22;30830;53.704;10.004;2022-09-20T04:33:59;6.40;99.90
45066;DHT22;30830;53.704;10.004;2022-09-20T04:36:56;6.30;99.90
45066;DHT22;30830;53.704;10.004;2022-09-20T04:39:48;6.30;99.90
45066;DHT22;30830;53.704;10.004;2022-09-20T04:48:07;6.30;99.90
45066;DHT22;30830;53.704;10.004;2022-09-20T04:55:54;6.20;99.90
45066;DHT22;30830;53.704;10.004;2022-09-20T04:58:47;6.10;99.90
45066;DHT22;30830;53.704;10.004;2022-09-20T05:04:19;6.10;99.90
45066;DHT22;30830;53.704;10.004;2022-09-20T05:07:57;6.00;99.90
45066;DHT22;30830;53.704;10.004;2022-09-20T05:15:19;6.00;99.90
45066;DHT22;30830;53.704;10.004;2022-09-20T05:21:22;6.00;99.90
45066;DHT22;30830;53.704;10.004;2022-09-20T05:27:18;6.00;99.90
45066;DHT22;30830;53.704;10.004;2022-09-20T05:32:33;6.00;99.90
45066;DHT22;30830;53.704;10.004;2022-09-20T05:35:05;6.00;99.90
45066;DHT22;30830;53.704;10.004;2022-09-20T05:37:45;6.00;99.90
45066;DHT22;30830;53.704;10.004;2022-09-20T05:43:08;5.90;99.90
45066;DHT22;30830;53.704;10.004;2022-09-20T05:48:55;6.00;99.90
45066;DHT22;30830;53.704;10.004;2022-09-20T05:59:39;6.10;99.90
45066;DHT22;30830;53.704;10.004;2022-09-20T06:05:25;6.10;99.90
45066;DHT22;30830;53.704;10.004;2022-09-20T06:14:02;6.20;99.90
45066;DHT22;30830;53.704;10.004;2022-09-20T06:16:54;6.20;99.90
45066;DHT22;30830;53.704;10.004;2022-09-20T06:22:04;6.20;99.90
45066;DHT22;30830;53.704;10.004;2022-09-20T06:24:47;6.30;99.90
45066;DHT22;30830;53.704;10.004;2022-09-20T06:30:23;6.30;99.90
45066;DHT22;30830;53.704;10.004;2022-09-20T06:35:24;6.50;99.90
45066;DHT22;30830;53.704;10.004;2022-09-20T06:41:08;6.60;99.90
45066;DHT22;30830;53.704;10.004;2022-09-20T06:43:57;6.70;99.90
45066;DHT22;30830;53.704;10.004;2022-09-20T06:46:25;6.80;99.90
45066;DHT22;30830;53.704;10.004;2022-09-20T06:48:51;6.80;99.90
45066;DHT22;30830;53.704;10.004;2022-09-20T06:51:17;6.90;99.90
45066;DHT22;30830;53.704;10.004;2022-09-20T06:53:42;7.00;99.90
45066;DHT22;30830;53.704;10.004;2022-09-20T06:56:13;7.10;99.90
45066;DHT22;30830;53.704;10.004;2022-09-20T06:58:40;7.20;99.90
45066;DHT22;30830;53.704;10.004;2022-09-20T07:01:05;7.30;99.90
45066;DHT22;30830;53.704;10.004;2022-09-20T07:03:31;7.30;99.90
45066;DHT22;30830;53.704;10.004;2022-09-20T07:08:32;7.50;99.90
45066;DHT22;30830;53.704;10.004;2022-09-20T07:11:11;7.60;99.90
45066;DHT22;30830;53.704;10.004;2022-09-20T07:13:38;7.70;99.90
45066;DHT22;30830;53.704;10.004;2022-09-20T07:16:05;7.90;99.90
45066;DHT22;30830;53.704;10.004;2022-09-20T07:18:31;8.00;99.90
45066;DHT22;30830;53.704;10.004;2022-09-20T07:20:58;8.20;99.90
45066;DHT22;30830;53.704;10.004;2022-09-20T07:23:25;8.30;99.90
45066;DHT22;30830;53.704;10.004;2022-09-20T07:25:51;8.40;99.90
45066;DHT22;30830;53.704;10.004;2022-09-20T07:28:17;8.60;99.90
45066;DHT22;30830;53.704;10.004;2022-09-20T07:30:45;8.70;99.90
45066;DHT22;30830;53.704;10.004;2022-09-20T07:33:11;8.80;99.90
45066;DHT22;30830;53.704;10.004;2022-09-20T07:35:41;8.90;99.90
45066;DHT22;30830;53.704;10.004;2022-09-20T07:38:07;9.00;99.90
45066;DHT22;30830;53.704;10.004;2022-09-20T07:40:33;9.10;99.90
45066;DHT22;30830;53.704;10.004;2022-09-20T07:42:58;9.20;99.90
45066;DHT22;30830;53.704;10.004;2022-09-20T07:45:24;9.30;99.90
45066;DHT22;30830;53.704;10.004;2022-09-20T07:47:50;9.50;99.90
45066;DHT22;30830;53.704;10.004;2022-09-20T07:50:18;9.60;99.90
45066;DHT22;30830;53.704;10.004;2022-09-20T07:52:44;9.80;99.90
45066;DHT22;30830;53.704;10.004;2022-09-20T07:55:10;9.90;99.90
45066;DHT22;30830;53.704;10.004;2022-09-20T07:57:36;10.10;99.90
45066;DHT22;30830;53.704;10.004;2022-09-20T08:00:05;10.30;99.90
45066;DHT22;30830;53.704;10.004;2022-09-20T08:02:31;10.40;99.90
45066;DHT22;30830;53.704;10.004;2022-09-20T08:04:56;10.50;99.90
45066;DHT22;30830;53.704;10.004;2022-09-20T08:07:22;10.60;99.90
45066;DHT22;30830;53.704;10.004;2022-09-20T08:09:48;10.70;99.90
45066;DHT22;30830;53.704;10.004;2022-09-20T08:12:15;10.80;99.90
45066;DHT22;30830;53.704;10.004;2022-09-20T08:14:41;10.90;99.90
45066;DHT22;30830;53.704;10.004;2022-09-20T08:17:08;11.00;99.90
45066;DHT22;30830;53.704;10.004;2022-09-20T08:19:34;11.10;99.90
45066;DHT22;30830;53.704;10.004;2022-09-20T08:22:01;11.20;99.90
45066;DHT22;30830;53.704;10.004;2022-09-20T08:24:27;11.30;99.90
45066;DHT22;30830;53.704;10.004;2022-09-20T08:26:52;11.50;99.90
45066;DHT22;30830;53.704;10.004;2022-09-20T08:29:18;11.60;99.90
45066;DHT22;30830;53.704;10.004;2022-09-20T08:31:43;11.70;99.90
45066;DHT22;30830;53.704;10.004;2022-09-20T08:34:12;11.70;99.90
45066;DHT22;30830;53.704;10.004;2022-09-20T08:36:41;11.80;99.90
45066;DHT22;30830;53.704;10.004;2022-09-20T08:39:09;11.90;99.90
45066;DHT22;30830;53.704;10.004;2022-09-20T08:41:44;12.00;99.90
45066;DHT22;30830;53.704;10.004;2022-09-20T08:44:16;12.10;99.90
45066;DHT22;30830;53.704;10.004;2022-09-20T08:46:48;12.20;99.90
45066;DHT22;30830;53.704;10.004;2022-09-20T08:49:25;12.20;99.90
45066;DHT22;30830;53.704;10.004;2022-09-20T08:51:51;12.20;99.90
45066;DHT22;30830;53.704;10.004;2022-09-20T08:54:18;12.30;99.90
45066;DHT22;30830;53.704;10.004;2022-09-20T08:56:44;12.30;99.90
45066;DHT22;30830;53.704;10.004;2022-09-20T08:59:15;12.40;99.90
45066;DHT22;30830;53.704;10.004;2022-09-20T09:01:43;12.40;99.90
45066;DHT22;30830;53.704;10.004;2022-09-20T09:04:20;12.40;99.90
45066;DHT22;30830;53.704;10.004;2022-09-20T09:06:48;12.50;99.90
45066;DHT22;30830;53.704;10.004;2022-09-20T09:09:24;12.40;99.90
45066;DHT22;30830;53.704;10.004;2022-09-20T09:11:52;12.50;99.90
45066;DHT22;30830;53.704;10.004;2022-09-20T09:14:23;12.50;99.90
45066;DHT22;30830;53.704;10.004;2022-09-20T09:17:09;12.50;99.90
45066;DHT22;30830;53.704;10.004;2022-09-20T09:20:21;12.60;99.90
45066;DHT22;30830;53.704;10.004;2022-09-20T09:22:56;12.60;99.90
45066;DHT22;30830;53.704;10.004;2022-09-20T09:25:24;12.60;99.90
45066;DHT22;30830;53.704;10.004;2022-09-20T09:27:58;12.50;99.90
45066;DHT22;30830;53.704;10.004;2022-09-20T09:33:32;12.60;99.90
45066;DHT22;30830;53.704;10.004;2022-09-20T09:36:05;12.60;99.90
45066;DHT22;30830;53.704;10.004;2022-09-20T09:38:34;12.70;99.90
45066;DHT22;30830;53.704;10.004;2022-09-20T09:41:03;12.70;99.90
45066;DHT22;30830;53.704;10.004;2022-09-20T09:43:34;12.50;99.90
45066;DHT22;30830;53.704;10.004;2022-09-20T09:46:23;12.40;99.90
45066;DHT22;30830;53.704;10.004;2022-09-20T09:49:30;12.40;99.90
45066;DHT22;30830;53.704;10.004;2022-09-20T09:54:33;12.60;99.90
45066;DHT22;30830;53.704;10.004;2022-09-20T10:06:29;12.90;99.90
45066;DHT22;30830;53.704;10.004;2022-09-20T10:12:26;13.10;99.90
45066;DHT22;30830;53.704;10.004;2022-09-20T10:25:58;13.30;99.90
45066;DHT22;30830;53.704;10.004;2022-09-20T10:31:25;13.20;99.90
45066;DHT22;30830;53.704;10.004;2022-09-20T10:36:58;13.20;99.90
45066;DHT22;30830;53.704;10.004;2022-09-20T10:39:38;13.30;99.90
45066;DHT22;30830;53.704;10.004;2022-09-20T10:45:04;13.40;99.90
45066;DHT22;30830;53.704;10.004;2022-09-20T10:47:37;13.50;99.90
45066;DHT22;30830;53.704;10.004;2022-09-20T10:50:47;13.40;99.90
45066;DHT22;30830;53.704;10.004;2022-09-20T10:55:59;13.50;99.90
45066;DHT22;30830;53.704;10.004;2022-09-20T11:04:12;13.60;99.90
45066;DHT22;30830;53.704;10.004;2022-09-20T11:09:23;13.50;99.90
45066;DHT22;30830;53.704;10.004;2022-09-20T11:12:23;13.50;99.90
45066;DHT22;30830;53.704;10.004;2022-09-20T11:17:25;13.60;99.90
45066;DHT22;30830;53.704;10.004;2022-09-20T11:20:06;13.60;99.90
45066;DHT22;30830;53.704;10.004;2022-09-20T11:22:42;13.70;99.90
45066;DHT22;30830;53.704;10.004;2022-09-20T11:25:19;13.70;99.90
45066;DHT22;30830;53.704;10.004;2022-09-20T11:27:55;13.70;99.90
45066;DHT22;30830;53.704;10.004;2022-09-20T11:30:23;13.80;99.90
45066;DHT22;30830;53.704;10.004;2022-09-20T11:35:38;14.00;99.90
45066;DHT22;30830;53.704;10.004;2022-09-20T11:40:49;14.10;99.90
45066;DHT22;30830;53.704;10.004;2022-09-20T11:43:17;14.10;99.90
45066;DHT22;30830;53.704;10.004;2022-09-20T11:45:46;14.10;99.90
45066;DHT22;30830;53.704;10.004;2022-09-20T11:48:30;14.10;99.90
45066;DHT22;30830;53.704;10.004;2022-09-20T11:54:09;14.20;99.90
45066;DHT22;30830;53.704;10.004;2022-09-20T11:56:40;14.20;99.90
45066;DHT22;30830;53.704;10.004;2022-09-20T12:01:59;14.30;99.90
45066;DHT22;30830;53.704;10.004;2022-09-20T12:04:30;14.50;99.90
45066;DHT22;30830;53.704;10.004;2022-09-20T12:09:33;14.50;99.90
45066;DHT22;30830;53.704;10.004;2022-09-20T12:12:23;14.50;99.90
45066;DHT22;30830;53.704;10.004;2022-09-20T12:14:56;14.50;99.90
45066;DHT22;30830;53.704;10.004;2022-09-20T12:26:04;14.40;99.90
45066;DHT22;30830;53.704;10.004;2022-09-20T12:28:40;14.40;99.90
45066;DHT22;30830;53.704;10.004;2022-09-20T12:36:31;14.40;99.90
45066;DHT22;30830;53.704;10.004;2022-09-20T12:41:49;14.50;99.90
45066;DHT22;30830;53.704;10.004;2022-09-20T12:44:35;14.50;99.90
45066;DHT22;30830;53.704;10.004;2022-09-20T12:47:05;14.60;99.90
45066;DHT22;30830;53.704;10.004;2022-09-20T13:11:48;14.60;99.90
45066;DHT22;30830;53.704;10.004;2022-09-20T13:19:45;14.70;99.90
45066;DHT22;30830;53.704;10.004;2022-09-20T13:22:19;14.90;99.90
45066;DHT22;30830;53.704;10.004;2022-09-20T13:24:47;14.90;99.90
45066;DHT22;30830;53.704;10.004;2022-09-20T13:27:23;15.10;99.90
45066;DHT22;30830;53.704;10.004;2022-09-20T13:29:50;15.20;99.90
45066;DHT22;30830;53.704;10.004;2022-09-20T13:32:27;15.40;99.90
45066;DHT22;30830;53.704;10.004;2022-09-20T13:38:04;15.60;99.90
45066;DHT22;30830;53.704;10.004;2022-09-20T13:40:45;15.60;99.60
45066;DHT22;30830;53.704;10.004;2022-09-20T13:46:11;15.60;99.20
45066;DHT22;30830;53.704;10.004;2022-09-20T13:48:37;15.60;99.10
45066;DHT22;30830;53.704;10.004;2022-09-20T13:51:13;15.70;98.90
45066;DHT22;30830;53.704;10.004;2022-09-20T13:53:39;15.70;97.60
45066;DHT22;30830;53.704;10.004;2022-09-20T13:56:10;15.80;97.60
45066;DHT22;30830;53.704;10.004;2022-09-20T13:58:40;15.70;96.90
45066;DHT22;30830;53.704;10.004;2022-09-20T14:01:20;15.60;97.60
45066;DHT22;30830;53.704;10.004;2022-09-20T14:03:47;15.50;97.60
45066;DHT22;30830;53.704;10.004;2022-09-20T14:06:13;15.40;99.10
45066;DHT22;30830;53.704;10.004;2022-09-20T14:08:43;15.30;98.70
45066;DHT22;30830;53.704;10.004;2022-09-20T14:11:16;15.40;97.80
45066;DHT22;30830;53.704;10.004;2022-09-20T14:13:46;15.30;98.10
45066;DHT22;30830;53.704;10.004;2022-09-20T14:16:12;15.40;97.80
45066;DHT22;30830;53.704;10.004;2022-09-20T14:18:40;15.40;97.40
45066;DHT22;30830;53.704;10.004;2022-09-20T14:21:07;15.40;97.10
45066;DHT22;30830;53.704;10.004;2022-09-20T14:23:49;15.40;97.10
45066;DHT22;30830;53.704;10.004;2022-09-20T14:28:44;15.40;97.60
45066;DHT22;30830;53.704;10.004;2022-09-20T14:33:48;15.40;96.90
45066;DHT22;30830;53.704;10.004;2022-09-20T14:36:19;15.40;98.10
45066;DHT22;30830;53.704;10.004;2022-09-20T14:38:47;15.40;98.40
45066;DHT22;30830;53.704;10.004;2022-09-20T14:41:38;15.30;99.30
45066;DHT22;30830;53.704;10.004;2022-09-20T14:44:12;15.30;97.50
45066;DHT22;30830;53.704;10.004;2022-09-20T14:46:41;15.30;99.10
45066;DHT22;30830;53.704;10.004;2022-09-20T14:52:20;15.40;96.70
45066;DHT22;30830;53.704;10.004;2022-09-20T14:54:39;15.40;96.80
45066;DHT22;30830;53.704;10.004;2022-09-20T14:57:05;15.40;96.90
45066;DHT22;30830;53.704;10.004;2022-09-20T14:59:40;15.40;97.60
45066;DHT22;30830;53.704;10.004;2022-09-20T15:04:32;15.40;95.80
45066;DHT22;30830;53.704;10.004;2022-09-20T15:07:18;15.40;95.10
45066;DHT22;30830;53.704;10.004;2022-09-20T15:09:43;15.40;94.60
45066;DHT22;30830;53.704;10.004;2022-09-20T15:12:18;15.40;94.90
45066;DHT22;30830;53.704;10.004;2022-09-20T15:14:44;15.40;96.00
45066;DHT22;30830;53.704;10.004;2022-09-20T15:19:40;15.40;96.60
45066;DHT22;30830;53.704;10.004;2022-09-20T15:22:10;15.40;96.60
45066;DHT22;30830;53.704;10.004;2022-09-20T15:24:36;15.40;97.30
45066;DHT22;30830;53.704;10.004;2022-09-20T15:27:02;15.30;96.90
45066;DHT22;30830;53.704;10.004;2022-09-20T15:29:28;15.20;96.60
45066;DHT22;30830;53.704;10.004;2022-09-20T15:31:54;15.20;95.50
45066;DHT22;30830;53.704;10.004;2022-09-20T15:34:20;15.10;96.00
45066;DHT22;30830;53.704;10.004;2022-09-20T15:36:45;15.10;96.10
45066;DHT22;30830;53.704;10.004;2022-09-20T15:39:11;15.10;96.70
45066;DHT22;30830;53.704;10.004;2022-09-20T15:41:37;15.10;95.10
45066;DHT22;30830;53.704;10.004;2022-09-20T15:44:04;15.10;95.50
45066;DHT22;30830;53.704;10.004;2022-09-20T15:46:30;15.10;96.30
45066;DHT22;30830;53.704;10.004;2022-09-20T15:48:58;15.10;96.90
45066;DHT22;30830;53.704;10.004;2022-09-20T15:51:24;15.00;98.90
45066;DHT22;30830;53.704;10.004;2022-09-20T15:53:59;15.00;99.20
45066;DHT22;30830;53.704;10.004;2022-09-20T15:56:35;15.00;98.40
45066;DHT22;30830;53.704;10.004;2022-09-20T15:59:06;15.00;96.50
45066;DHT22;30830;53.704;10.004;2022-09-20T16:01:36;15.00;97.50
45066;DHT22;30830;53.704;10.004;2022-09-20T16:04:15;15.00;98.30
45066;DHT22;30830;53.704;10.004;2022-09-20T16:06:42;15.00;97.70
45066;DHT22;30830;53.704;10.004;2022-09-20T16:09:08;15.00;98.00
45066;DHT22;30830;53.704;10.004;2022-09-20T16:11:35;15.00;98.00
45066;DHT22;30830;53.704;10.004;2022-09-20T16:14:01;14.90;99.10
45066;DHT22;30830;53.704;10.004;2022-09-20T16:16:28;14.90;98.60
45066;DHT22;30830;53.704;10.004;2022-09-20T16:18:54;14.90;99.50
45066;DHT22;30830;53.704;10.004;2022-09-20T16:21:40;14.80;99.30
45066;DHT22;30830;53.704;10.004;2022-09-20T16:24:07;14.80;99.30
45066;DHT22;30830;53.704;10.004;2022-09-20T16:26:33;14.70;99.60
45066;DHT22;30830;53.704;10.004;2022-09-20T16:28:59;14.70;99.90
45066;DHT22;30830;53.704;10.004;2022-09-20T16:31:35;14.70;99.90
45066;DHT22;30830;53.704;10.004;2022-09-20T16:34:12;14.60;99.90
45066;DHT22;30830;53.704;10.004;2022-09-20T16:36:38;14.60;99.90
45066;DHT22;30830;53.704;10.004;2022-09-20T16:39:06;14.50;99.90
45066;DHT22;30830;53.704;10.004;2022-09-20T16:41:32;14.50;99.90
45066;DHT22;30830;53.704;10.004;2022-09-20T16:43:58;14.50;99.50
45066;DHT22;30830;53.704;10.004;2022-09-20T16:46:24;14.50;99.90
45066;DHT22;30830;53.704;10.004;2022-09-20T16:48:53;14.40;98.60
45066;DHT22;30830;53.704;10.004;2022-09-20T16:51:20;14.40;99.10
45066;DHT22;30830;53.704;10.004;2022-09-20T16:53:48;14.30;99.90
45066;DHT22;30830;53.704;10.004;2022-09-20T16:56:18;14.30;99.90
45066;DHT22;30830;53.704;10.004;2022-09-20T16:58:46;14.30;99.90
45066;DHT22;30830;53.704;10.004;2022-09-20T17:01:14;14.20;99.90
45066;DHT22;30830;53.704;10.004;2022-09-20T17:03:41;14.10;99.90
45066;DHT22;30830;53.704;10.004;2022-09-20T17:06:07;14.10;99.90
45066;DHT22;30830;53.704;10.004;2022-09-20T17:08:34;14.00;99.90
45066;DHT22;30830;53.704;10.004;2022-09-20T17:11:04;13.90;99.90
45066;DHT22;30830;53.704;10.004;2022-09-20T17:13:33;13.80;99.90
45066;DHT22;30830;53.704;10.004;2022-09-20T17:16:03;13.80;99.90
45066;DHT22;30830;53.704;10.004;2022-09-20T17:18:29;13.70;99.90
45066;DHT22;30830;53.704;10.004;2022-09-20T17:20:55;13.60;99.90
45066;DHT22;30830;53.704;10.004;2022-09-20T17:23:21;13.40;99.90
45066;DHT22;30830;53.704;10.004;2022-09-20T17:25:48;13.30;99.90
45066;DHT22;30830;53.704;10.004;2022-09-20T17:28:15;13.20;99.90
45066;DHT22;30830;53.704;10.004;2022-09-20T17:30:40;13.10;99.90
45066;DHT22;30830;53.704;10.004;2022-09-20T17:33:06;13.00;99.90
45066;DHT22;30830;53.704;10.004;2022-09-20T17:35:31;12.90;99.90
45066;DHT22;30830;53.704;10.004;2022-09-20T17:37:57;12.90;99.90
45066;DHT22;30830;53.704;10.004;2022-09-20T17:40:23;12.70;99.90
45066;DHT22;30830;53.704;10.004;2022-09-20T17:42:48;12.60;99.90
45066;DHT22;30830;53.704;10.004;2022-09-20T17:45:14;12.60;99.90
45066;DHT22;30830;53.704;10.004;2022-09-20T17:47:40;12.50;99.90
45066;DHT22;30830;53.704;10.004;2022-09-20T17:50:07;12.40;99.90
45066;DHT22;30830;53.704;10.004;2022-09-20T17:52:33;12.30;99.90
45066;DHT22;30830;53.704;10.004;2022-09-20T17:54:58;12.30;99.90
45066;DHT22;30830;53.704;10.004;2022-09-20T17:57:24;12.20;99.90
45066;DHT22;30830;53.704;10.004;2022-09-20T17:59:49;12.10;99.90
45066;DHT22;30830;53.704;10.004;2022-09-20T18:02:15;12.10;99.90
45066;DHT22;30830;53.704;10.004;2022-09-20T18:04:40;12.00;99.90
45066;DHT22;30830;53.704;10.004;2022-09-20T18:07:07;11.90;99.90
45066;DHT22;30830;53.704;10.004;2022-09-20T18:09:32;11.80;99.90
45066;DHT22;30830;53.704;10.004;2022-09-20T18:11:58;11.80;99.90
45066;DHT22;30830;53.704;10.004;2022-09-20T18:14:25;11.70;99.90
45066;DHT22;30830;53.704;10.004;2022-09-20T18:16:56;11.60;99.90
45066;DHT22;30830;53.704;10.004;2022-09-20T18:19:24;11.50;99.90
45066;DHT22;30830;53.704;10.004;2022-09-20T18:21:56;11.50;99.90
45066;DHT22;30830;53.704;10.004;2022-09-20T18:24:22;11.50;99.90
45066;DHT22;30830;53.704;10.004;2022-09-20T18:26:47;11.40;99.90
45066;DHT22;30830;53.704;10.004;2022-09-20T18:29:15;11.40;99.90
45066;DHT22;30830;53.704;10.004;2022-09-20T18:31:45;11.30;99.90
45066;DHT22;30830;53.704;10.004;2022-09-20T18:34:15;11.20;99.90
45066;DHT22;30830;53.704;10.004;2022-09-20T18:36:44;11.20;99.90
45066;DHT22;30830;53.704;10.004;2022-09-20T18:39:10;11.20;99.90
45066;DHT22;30830;53.704;10.004;2022-09-20T18:41:37;11.10;99.90
45066;DHT22;30830;53.704;10.004;2022-09-20T18:44:06;11.00;99.90
45066;DHT22;30830;53.704;10.004;2022-09-20T18:46:32;11.00;99.90
45066;DHT22;30830;53.704;10.004;2022-09-20T18:49:05;10.90;99.90
45066;DHT22;30830;53.704;10.004;2022-09-20T18:51:31;10.90;99.90
45066;DHT22;30830;53.704;10.004;2022-09-20T18:53:57;10.80;99.90
45066;DHT22;30830;53.704;10.004;2022-09-20T18:56:28;10.80;99.90
45066;DHT22;30830;53.704;10.004;2022-09-20T18:58:56;10.80;99.90
45066;DHT22;30830;53.704;10.004;2022-09-20T19:04:33;10.70;99.90
45066;DHT22;30830;53.704;10.004;2022-09-20T19:09:47;10.60;99.90
45066;DHT22;30830;53.704;10.004;2022-09-20T19:12:28;10.60;99.90
45066;DHT22;30830;53.704;10.004;2022-09-20T19:20:36;10.50;99.90
45066;DHT22;30830;53.704;10.004;2022-09-20T19:25:57;10.40;99.90
45066;DHT22;30830;53.704;10.004;2022-09-20T19:28:25;10.30;99.90
45066;DHT22;30830;53.704;10.004;2022-09-20T19:30:51;10.30;99.90
45066;DHT22;30830;53.704;10.004;2022-09-20T19:33:17;10.20;99.90
45066;DHT22;30830;53.704;10.004;2022-09-20T19:35:47;10.10;99.90
45066;DHT22;30830;53.704;10.004;2022-09-20T19:38:15;10.10;99.90
45066;DHT22;30830;53.704;10.004;2022-09-20T19:46:30;10.00;99.90
45066;DHT22;30830;53.704;10.004;2022-09-20T19:49:20;9.90;99.90
45066;DHT22;30830;53.704;10.004;2022-09-20T19:51:47;9.90;99.90
45066;DHT22;30830;53.704;10.004;2022-09-20T19:54:13;9.80;99.90
45066;DHT22;30830;53.704;10.004;2022-09-20T19:56:56;9.80;99.90
45066;DHT22;30830;53.704;10.004;2022-09-20T19:59:24;9.80;99.90
45066;DHT22;30830;53.704;10.004;2022-09-20T20:01:51;9.70;99.90
45066;DHT22;30830;53.704;10.004;2022-09-20T20:04:18;9.70;99.90
45066;DHT22;30830;53.704;10.004;2022-09-20T20:06:53;9.70;99.90
45066;DHT22;30830;53.704;10.004;2022-09-20T20:09:31;9.60;99.90
45066;DHT22;30830;53.704;10.004;2022-09-20T20:14:36;9.60;99.90
45066;DHT22;30830;53.704;10.004;2022-09-20T20:17:19;9.60;99.90
45066;DHT22;30830;53.704;10.004;2022-09-20T20:20:17;9.50;99.90
45066;DHT22;30830;53.704;10.004;2022-09-20T20:26:08;9.40;99.90
45066;DHT22;30830;53.704;10.004;2022-09-20T20:28:34;9.40;99.90
45066;DHT22;30830;53.704;10.004;2022-09-20T20:31:00;9.30;99.90
45066;DHT22;30830;53.704;10.004;2022-09-20T20:33:29;9.30;99.90
45066;DHT22;30830;53.704;10.004;2022-09-20T20:35:58;9.30;99.90
45066;DHT22;30830;53.704;10.004;2022-09-20T20:38:25;9.30;99.90
45066;DHT22;30830;53.704;10.004;2022-09-20T20:41:01;9.20;99.90
45066;DHT22;30830;53.704;10.004;2022-09-20T20:43:33;9.20;99.90
45066;DHT22;30830;53.704;10.004;2022-09-20T20:46:00;9.10;99.90
45066;DHT22;30830;53.704;10.004;2022-09-20T20:48:26;9.10;99.90
45066;DHT22;30830;53.704;10.004;2022-09-20T20:51:06;9.10;99.90
45066;DHT22;30830;53.704;10.004;2022-09-20T20:53:36;9.00;99.90
45066;DHT22;30830;53.704;10.004;2022-09-20T20:56:04;9.00;99.90
45066;DHT22;30830;53.704;10.004;2022-09-20T20:58:32;9.00;99.90
45066;DHT22;30830;53.704;10.004;2022-09-20T21:01:28;9.00;99.90